createdAt,value
2019-02-07T00:02:01.644Z,14.90
2019-02-07T00:03:46.250Z,14.20
2019-02-07T00:07:14.371Z,13.78
2019-02-07T00:08:38.818Z,13.50
2019-02-07T00:09:43.953Z,14.38
2019-02-07T00:10:48.960Z,15.35
2019-02-07T00:12:13.238Z,14.85
2019-02-07T00:13:37.421Z,14.18
2019-02-07T00:14:42.382Z,14.85
2019-02-07T00:16:06.616Z,14.47
2019-02-07T00:17:30.731Z,14.38
2019-02-07T00:18:35.775Z,14.00
2019-02-07T00:19:40.834Z,15.18
2019-02-07T00:21:06.972Z,14.43
2019-02-07T00:22:31.447Z,14.23
2019-02-07T00:23:36.825Z,14.68
2019-02-07T00:25:01.271Z,15.30
2019-02-07T00:27:50.958Z,14.50
2019-02-07T00:29:15.152Z,14.63
2019-02-07T00:32:29.266Z,14.53
2019-02-07T00:33:53.434Z,13.65
2019-02-07T00:35:17.541Z,15.05
2019-02-07T00:36:22.781Z,13.83
2019-02-07T00:39:36.991Z,15.35
2019-02-07T00:40:42.298Z,13.60
2019-02-07T00:41:47.606Z,14.35
2019-02-07T00:43:11.756Z,15.60
2019-02-07T00:44:16.762Z,16.85
2019-02-07T00:45:21.947Z,14.73
2019-02-07T00:46:39.246Z,15.38
2019-02-07T00:48:23.935Z,15.93
2019-02-07T00:49:29.146Z,12.75
2019-02-07T00:51:14.414Z,15.00
2019-02-07T00:52:19.577Z,13.83
2019-02-07T00:53:44.049Z,13.50
2019-02-07T00:54:49.095Z,14.33
2019-02-07T00:55:54.725Z,15.28
2019-02-07T00:57:19.184Z,13.60
2019-02-07T00:58:24.329Z,12.88
2019-02-07T00:59:29.414Z,14.85
2019-02-07T01:01:38.733Z,15.05
2019-02-07T01:02:44.125Z,13.20
2019-02-07T01:03:49.083Z,15.05
2019-02-07T01:04:54.185Z,16.15
2019-02-07T01:05:59.384Z,14.10
2019-02-07T01:07:04.657Z,15.90
2019-02-07T01:08:12.155Z,14.85
2019-02-07T01:09:17.217Z,15.10
2019-02-07T01:10:24.017Z,14.75
2019-02-07T01:11:29.055Z,16.00
2019-02-07T01:12:34.080Z,16.35
2019-02-07T01:13:39.115Z,14.63
2019-02-07T01:14:44.383Z,13.35
2019-02-07T01:15:49.792Z,13.90
2019-02-07T01:16:55.477Z,14.45
2019-02-07T01:18:00.702Z,14.78
2019-02-07T01:19:06.835Z,14.90
2019-02-07T01:20:13.738Z,15.28
2019-02-07T01:21:19.164Z,13.38
2019-02-07T01:22:24.374Z,14.87
2019-02-07T01:23:29.390Z,15.63
2019-02-07T01:24:34.941Z,14.53
2019-02-07T01:25:40.152Z,14.95
2019-02-07T01:26:45.336Z,14.30
2019-02-07T01:27:50.560Z,14.70
2019-02-07T01:28:56.287Z,14.70
2019-02-07T01:30:01.499Z,13.78
2019-02-07T01:31:06.869Z,14.63
2019-02-07T01:32:11.866Z,15.72
2019-02-07T01:33:17.094Z,14.68
2019-02-07T01:34:22.417Z,14.95
2019-02-07T01:35:27.580Z,14.43
2019-02-07T01:36:32.757Z,15.23
2019-02-07T01:37:38.244Z,15.58
2019-02-07T01:38:43.350Z,14.70
2019-02-07T01:39:48.450Z,14.93
2019-02-07T01:40:53.581Z,15.38
2019-02-07T01:41:58.504Z,14.65
2019-02-07T01:43:03.551Z,13.58
2019-02-07T01:44:08.932Z,15.05
2019-02-07T01:45:16.534Z,14.65
2019-02-07T01:46:21.661Z,14.18
2019-02-07T01:47:27.330Z,16.30
2019-02-07T01:48:33.603Z,14.87
2019-02-07T01:49:38.637Z,14.60
2019-02-07T01:50:43.841Z,13.78
2019-02-07T01:51:48.894Z,14.03
2019-02-07T01:52:54.590Z,14.23
2019-02-07T01:53:59.602Z,14.53
2019-02-07T01:55:05.299Z,14.75
2019-02-07T01:56:10.509Z,15.23
2019-02-07T01:57:15.586Z,15.05
2019-02-07T01:58:21.154Z,13.85
2019-02-07T01:59:26.289Z,15.15
2019-02-07T02:00:31.411Z,15.28
2019-02-07T02:01:36.563Z,14.23
2019-02-07T02:02:41.898Z,15.35
2019-02-07T02:03:46.930Z,14.60
2019-02-07T02:04:52.054Z,14.85
2019-02-07T02:05:57.397Z,15.38
2019-02-07T02:07:02.850Z,14.30
2019-02-07T02:08:07.956Z,14.93
2019-02-07T02:09:13.767Z,15.30
2019-02-07T02:10:26.072Z,14.40
2019-02-07T02:11:31.463Z,14.53
2019-02-07T02:12:36.602Z,15.38
2019-02-07T02:13:41.723Z,13.98
2019-02-07T02:14:46.849Z,13.70
2019-02-07T02:15:51.875Z,14.98
2019-02-07T02:16:57.004Z,14.35
2019-02-07T02:18:02.018Z,14.25
2019-02-07T02:19:07.194Z,14.05
2019-02-07T02:20:13.056Z,14.07
2019-02-07T02:21:18.862Z,14.58
2019-02-07T02:22:24.003Z,12.70
2019-02-07T02:23:29.551Z,15.18
2019-02-07T02:24:34.719Z,14.35
2019-02-07T02:25:39.831Z,13.93
2019-02-07T02:26:44.918Z,15.40
2019-02-07T02:27:50.528Z,13.70
2019-02-07T02:28:55.643Z,15.88
2019-02-07T02:30:00.798Z,14.55
2019-02-07T02:31:05.948Z,13.95
2019-02-07T02:32:11.055Z,15.03
2019-02-07T02:33:16.317Z,14.35
2019-02-07T02:34:21.868Z,14.70
2019-02-07T02:35:27.422Z,13.93
2019-02-07T02:36:32.474Z,13.75
2019-02-07T02:37:37.528Z,14.55
2019-02-07T02:38:42.885Z,14.98
2019-02-07T02:39:47.996Z,14.33
2019-02-07T02:40:53.390Z,15.25
2019-02-07T02:41:59.890Z,14.33
2019-02-07T02:43:05.057Z,12.80
2019-02-07T02:44:10.179Z,13.75
2019-02-07T02:45:16.326Z,13.78
2019-02-07T02:46:21.473Z,13.35
2019-02-07T02:47:26.598Z,14.65
2019-02-07T02:48:31.957Z,14.90
2019-02-07T02:49:37.034Z,14.75
2019-02-07T02:50:43.266Z,14.90
2019-02-07T02:51:48.295Z,13.38
2019-02-07T02:52:53.541Z,13.90
2019-02-07T02:54:00.858Z,15.23
2019-02-07T02:55:06.572Z,14.80
2019-02-07T02:56:11.675Z,15.38
2019-02-07T02:57:16.714Z,14.18
2019-02-07T02:58:21.860Z,15.50
2019-02-07T02:59:27.378Z,15.25
2019-02-07T03:01:00.528Z,13.83
2019-02-07T03:02:31.866Z,14.43
2019-02-07T03:04:05.119Z,13.85
2019-02-07T03:05:38.561Z,14.03
2019-02-07T03:07:17.804Z,13.15
2019-02-07T03:08:54.355Z,15.45
2019-02-07T03:10:18.607Z,13.43
2019-02-07T03:11:47.303Z,13.93
2019-02-07T03:13:02.301Z,14.60
2019-02-07T03:14:24.692Z,13.88
2019-02-07T03:16:03.739Z,15.10
2019-02-07T03:17:27.841Z,14.25
2019-02-07T03:18:54.327Z,16.32
2019-02-07T03:20:26.602Z,13.85
2019-02-07T03:22:04.402Z,14.10
2019-02-07T03:23:38.241Z,14.87
2019-02-07T03:25:17.725Z,15.45
2019-02-07T03:26:40.763Z,14.47
2019-02-07T03:28:11.039Z,15.08
2019-02-07T03:29:28.292Z,14.85
2019-02-07T03:31:01.334Z,14.28
2019-02-07T03:32:36.992Z,13.88
2019-02-07T03:34:08.412Z,15.00
2019-02-07T03:35:42.260Z,13.90
2019-02-07T03:36:56.902Z,14.80
2019-02-07T03:38:15.618Z,14.68
2019-02-07T03:39:28.159Z,14.75
2019-02-07T03:40:55.392Z,14.90
2019-02-07T03:42:18.514Z,14.73
2019-02-07T03:43:51.782Z,16.00
2019-02-07T03:45:21.805Z,15.20
2019-02-07T03:46:54.832Z,13.68
2019-02-07T03:48:07.441Z,13.62
2019-02-07T03:49:30.307Z,12.85
2019-02-07T03:51:03.425Z,14.33
2019-02-07T03:52:33.676Z,14.55
2019-02-07T03:54:01.704Z,14.35
2019-02-07T03:55:28.929Z,15.18
2019-02-07T03:56:58.681Z,13.13
2019-02-07T03:58:35.258Z,13.30
2019-02-07T03:59:57.294Z,12.80
2019-02-07T04:01:21.403Z,14.05
2019-02-07T04:02:44.150Z,13.38
2019-02-07T04:04:20.702Z,13.60
2019-02-07T04:05:47.443Z,14.10
2019-02-07T04:07:10.512Z,12.65
2019-02-07T04:08:33.182Z,14.23
2019-02-07T04:10:00.097Z,13.45
2019-02-07T04:11:28.361Z,14.03
2019-02-07T04:12:50.554Z,15.08
2019-02-07T04:14:11.363Z,13.70
2019-02-07T04:15:25.872Z,13.78
2019-02-07T04:16:52.837Z,14.83
2019-02-07T04:18:19.948Z,14.38
2019-02-07T04:19:50.296Z,13.98
2019-02-07T04:21:17.305Z,15.20
2019-02-07T04:22:50.757Z,13.88
2019-02-07T04:24:18.100Z,12.80
2019-02-07T04:25:54.963Z,14.28
2019-02-07T04:27:16.296Z,12.90
2019-02-07T04:28:49.699Z,13.93
2019-02-07T04:30:15.302Z,14.07
2019-02-07T04:31:38.336Z,11.38
2019-02-07T04:33:01.177Z,12.90
2019-02-07T04:34:24.114Z,12.85
2019-02-07T04:35:46.810Z,14.15
2019-02-07T04:37:10.857Z,14.13
2019-02-07T04:38:31.885Z,13.45
2019-02-07T04:40:01.805Z,12.35
2019-02-07T04:41:23.322Z,13.20
2019-02-07T04:42:45.225Z,13.43
2019-02-07T04:44:07.566Z,12.75
2019-02-07T04:45:37.777Z,13.38
2019-02-07T04:47:13.783Z,14.38
2019-02-07T04:48:37.744Z,14.43
2019-02-07T04:50:13.879Z,13.65
2019-02-07T04:51:43.805Z,14.53
2019-02-07T04:52:59.242Z,13.13
2019-02-07T04:54:42.758Z,13.08
2019-02-07T04:56:06.083Z,13.38
2019-02-07T04:57:29.136Z,12.75
2019-02-07T04:58:59.286Z,13.28
2019-02-07T05:00:35.010Z,13.98
2019-02-07T05:01:59.107Z,13.32
2019-02-07T05:03:24.709Z,13.40
2019-02-07T05:04:40.465Z,14.40
2019-02-07T05:06:03.114Z,14.05
2019-02-07T05:07:16.665Z,13.05
2019-02-07T05:08:49.746Z,14.15
2019-02-07T05:10:16.500Z,13.80
2019-02-07T05:11:47.536Z,13.90
2019-02-07T05:13:03.739Z,14.75
2019-02-07T05:14:16.688Z,13.30
2019-02-07T05:15:30.684Z,15.43
2019-02-07T05:16:53.265Z,13.20
2019-02-07T05:18:16.643Z,13.10
2019-02-07T05:19:38.114Z,14.47
2019-02-07T05:20:54.093Z,12.40
2019-02-07T05:22:17.101Z,13.43
2019-02-07T05:23:30.408Z,12.95
2019-02-07T05:25:00.954Z,13.85
2019-02-07T05:26:25.759Z,14.20
2019-02-07T05:27:56.091Z,14.28
2019-02-07T05:29:13.232Z,13.90
2019-02-07T05:30:52.846Z,13.78
2019-02-07T05:32:15.904Z,13.85
2019-02-07T05:33:46.095Z,13.32
2019-02-07T05:35:08.961Z,14.15
2019-02-07T05:36:31.641Z,14.53
2019-02-07T05:37:54.927Z,14.23
2019-02-07T05:39:06.403Z,12.25
2019-02-07T05:40:40.052Z,13.72
2019-02-07T05:42:07.340Z,13.90
2019-02-07T05:43:23.429Z,13.13
2019-02-07T05:44:53.732Z,14.07
2019-02-07T05:46:06.777Z,13.45
2019-02-07T05:47:45.976Z,13.80
2019-02-07T05:49:13.346Z,13.38
2019-02-07T05:50:43.419Z,13.40
2019-02-07T05:52:10.485Z,14.60
2019-02-07T05:53:31.906Z,13.30
2019-02-07T05:54:54.605Z,13.85
2019-02-07T05:56:17.911Z,14.38
2019-02-07T05:57:46.748Z,14.90
2019-02-07T05:59:26.161Z,13.65
2019-02-07T06:00:50.047Z,13.90
2019-02-07T06:02:05.655Z,14.53
2019-02-07T06:03:28.616Z,15.45
2019-02-07T06:05:04.756Z,14.15
2019-02-07T06:06:20.047Z,13.95
2019-02-07T06:07:44.004Z,14.13
2019-02-07T06:09:07.548Z,13.90
2019-02-07T06:10:32.980Z,14.47
2019-02-07T06:12:00.088Z,15.55
2019-02-07T06:13:27.306Z,14.38
2019-02-07T06:14:49.841Z,13.08
2019-02-07T06:16:32.484Z,14.43
2019-02-07T06:17:52.745Z,14.20
2019-02-07T06:19:31.950Z,14.85
2019-02-07T06:20:51.628Z,16.00
2019-02-07T06:22:10.192Z,13.35
2019-02-07T06:23:32.942Z,13.90
2019-02-07T06:24:56.977Z,13.10
2019-02-07T06:26:39.739Z,13.48
2019-02-07T06:28:09.542Z,14.05
2019-02-07T06:29:21.306Z,15.00
2019-02-07T06:30:45.879Z,13.28
2019-02-07T06:32:10.469Z,14.05
2019-02-07T06:33:33.657Z,12.50
2019-02-07T06:35:03.772Z,13.32
2019-02-07T06:36:27.938Z,14.25
2019-02-07T06:37:52.229Z,14.20
2019-02-07T06:39:28.717Z,12.47
2019-02-07T06:40:55.240Z,13.45
2019-02-07T06:42:21.809Z,12.35
2019-02-07T06:43:58.380Z,12.20
2019-02-07T06:45:21.765Z,14.47
2019-02-07T06:46:44.942Z,14.53
2019-02-07T06:47:57.795Z,12.63
2019-02-07T06:49:20.562Z,15.03
2019-02-07T06:50:44.654Z,13.68
2019-02-07T06:51:56.376Z,12.93
2019-02-07T06:53:31.846Z,12.05
2019-02-07T06:54:59.086Z,13.68
2019-02-07T06:56:22.208Z,12.30
2019-02-07T06:57:45.934Z,14.23
2019-02-07T06:59:16.309Z,13.08
2019-02-07T07:00:32.284Z,14.18
2019-02-07T07:01:50.274Z,15.28
2019-02-07T07:03:14.496Z,14.83
2019-02-07T07:04:29.412Z,15.50
2019-02-07T07:05:52.127Z,14.45
2019-02-07T07:07:10.686Z,15.65
2019-02-07T07:08:34.756Z,14.98
2019-02-07T07:09:57.307Z,13.28
2019-02-07T07:11:24.028Z,15.05
2019-02-07T07:13:03.409Z,14.70
2019-02-07T07:14:20.891Z,13.55
2019-02-07T07:15:33.237Z,14.90
2019-02-07T07:17:03.036Z,14.15
2019-02-07T07:18:26.356Z,16.67
2019-02-07T07:19:49.130Z,15.32
2019-02-07T07:21:13.537Z,14.58
2019-02-07T07:22:49.783Z,15.20
2019-02-07T07:24:14.028Z,13.90
2019-02-07T07:25:41.075Z,13.98
2019-02-07T07:27:03.359Z,14.00
2019-02-07T07:28:26.729Z,13.68
2019-02-07T07:29:49.759Z,13.53
2019-02-07T07:31:29.011Z,13.85
2019-02-07T07:32:48.161Z,14.70
2019-02-07T07:34:24.323Z,13.25
2019-02-07T07:35:42.859Z,13.72
2019-02-07T07:37:05.557Z,14.65
2019-02-07T07:38:28.410Z,14.83
2019-02-07T07:39:51.086Z,13.50
2019-02-07T07:41:13.745Z,13.43
2019-02-07T07:42:32.809Z,14.90
2019-02-07T07:43:55.868Z,13.70
2019-02-07T07:45:18.842Z,14.05
2019-02-07T07:46:41.921Z,13.28
2019-02-07T07:48:21.178Z,15.08
2019-02-07T07:49:35.092Z,12.58
2019-02-07T07:51:14.466Z,13.40
2019-02-07T07:52:37.413Z,13.00
2019-02-07T07:53:53.672Z,12.98
2019-02-07T07:55:09.533Z,13.45
2019-02-07T07:56:25.054Z,13.65
2019-02-07T07:57:48.054Z,13.43
2019-02-07T07:59:27.263Z,12.47
2019-02-07T08:00:51.401Z,13.78
2019-02-07T08:02:15.262Z,12.18
2019-02-07T08:03:41.821Z,12.95
2019-02-07T08:04:58.779Z,13.20
2019-02-07T08:06:25.534Z,12.88
2019-02-07T08:07:50.833Z,11.68
2019-02-07T08:09:08.248Z,12.55
2019-02-07T08:10:40.394Z,11.63
2019-02-07T08:12:10.821Z,14.18
2019-02-07T08:13:34.020Z,12.10
2019-02-07T08:14:57.329Z,12.05
2019-02-07T08:16:20.657Z,9.88
2019-02-07T08:17:47.582Z,9.55
2019-02-07T08:19:09.337Z,10.08
2019-02-07T08:20:39.301Z,9.35
2019-02-07T08:22:00.653Z,9.28
2019-02-07T08:23:11.758Z,8.50
2019-02-07T08:24:35.048Z,7.55
2019-02-07T08:25:52.644Z,8.40
2019-02-07T08:27:16.671Z,7.90
2019-02-07T08:28:41.195Z,8.30
2019-02-07T08:30:05.683Z,9.43
2019-02-07T08:31:23.361Z,7.60
2019-02-07T08:32:50.450Z,8.25
2019-02-07T08:34:14.397Z,9.90
2019-02-07T08:35:47.401Z,8.15
2019-02-07T08:37:14.515Z,8.65
2019-02-07T08:38:30.453Z,8.40
2019-02-07T08:39:46.826Z,8.40
2019-02-07T08:41:12.892Z,8.33
2019-02-07T08:42:42.880Z,8.95
2019-02-07T08:44:04.154Z,8.63
2019-02-07T08:45:28.301Z,8.88
2019-02-07T08:47:07.512Z,8.88
2019-02-07T08:48:30.375Z,8.93
2019-02-07T08:49:52.702Z,9.15
2019-02-07T08:51:21.612Z,9.58
2019-02-07T08:52:49.843Z,7.87
2019-02-07T08:54:25.947Z,7.40
2019-02-07T08:55:49.998Z,6.85
2019-02-07T08:57:11.490Z,5.40
2019-02-07T08:58:44.631Z,3.75
2019-02-07T09:00:14.954Z,3.55
2019-02-07T09:01:43.752Z,3.30
2019-02-07T09:03:06.854Z,2.27
2019-02-07T09:04:36.521Z,1.87
2019-02-07T09:05:59.429Z,1.55
2019-02-07T09:07:32.110Z,1.30
2019-02-07T09:08:58.452Z,1.65
2019-02-07T09:10:24.074Z,1.45
2019-02-07T09:11:53.605Z,1.75
2019-02-07T09:13:09.780Z,2.05
2019-02-07T09:14:35.106Z,2.00
2019-02-07T09:15:59.160Z,2.05
2019-02-07T09:17:14.339Z,1.80
2019-02-07T09:18:37.433Z,2.08
2019-02-07T09:19:54.492Z,2.00
2019-02-07T09:21:12.461Z,1.60
2019-02-07T09:22:28.601Z,2.95
2019-02-07T09:23:45.466Z,2.45
2019-02-07T09:25:09.116Z,2.55
2019-02-07T09:26:25.825Z,2.85
2019-02-07T09:27:48.735Z,3.35
2019-02-07T09:29:11.970Z,3.25
2019-02-07T09:30:40.847Z,4.12
2019-02-07T09:32:13.830Z,2.87
2019-02-07T09:33:31.323Z,2.52
2019-02-07T09:34:54.482Z,4.60
2019-02-07T09:36:27.310Z,4.25
2019-02-07T09:38:06.855Z,3.22
2019-02-07T09:39:46.179Z,4.50
2019-02-07T09:41:12.375Z,2.40
2019-02-07T09:42:29.000Z,2.95
2019-02-07T09:43:51.953Z,3.27
2019-02-07T09:45:07.167Z,3.55
2019-02-07T09:46:40.419Z,3.20
2019-02-07T09:48:02.601Z,4.33
2019-02-07T09:49:16.550Z,2.80
2019-02-07T09:50:44.177Z,4.47
2019-02-07T09:52:07.122Z,3.90
2019-02-07T09:53:40.440Z,5.12
2019-02-07T09:54:58.897Z,3.83
2019-02-07T09:56:23.463Z,3.85
2019-02-07T09:57:47.214Z,3.92
2019-02-07T09:59:14.422Z,5.25
2019-02-07T10:00:36.495Z,3.60
2019-02-07T10:01:59.198Z,3.52
2019-02-07T10:03:14.085Z,6.17
2019-02-07T10:04:41.723Z,3.80
2019-02-07T10:06:00.663Z,5.97
2019-02-07T10:07:23.043Z,4.30
2019-02-07T10:09:05.661Z,4.10
2019-02-07T10:10:29.010Z,4.30
2019-02-07T10:12:08.193Z,4.12
2019-02-07T10:13:32.303Z,4.58
2019-02-07T10:14:54.754Z,5.10
2019-02-07T10:16:09.410Z,4.17
2019-02-07T10:17:25.304Z,4.53
2019-02-07T10:18:58.503Z,4.30
2019-02-07T10:20:20.286Z,4.78
2019-02-07T10:21:41.078Z,5.00
2019-02-07T10:23:04.093Z,4.40
2019-02-07T10:24:37.333Z,4.45
2019-02-07T10:26:10.264Z,4.42
2019-02-07T10:27:37.132Z,4.37
2019-02-07T10:29:00.371Z,4.10
2019-02-07T10:30:35.774Z,4.90
2019-02-07T10:32:03.045Z,4.20
2019-02-07T10:33:25.402Z,5.95
2019-02-07T10:34:48.577Z,3.83
2019-02-07T10:36:15.142Z,4.05
2019-02-07T10:37:31.793Z,3.42
2019-02-07T10:39:05.329Z,3.87
2019-02-07T10:40:40.998Z,3.77
2019-02-07T10:42:04.365Z,5.10
2019-02-07T10:43:27.515Z,6.47
2019-02-07T10:44:57.898Z,5.03
2019-02-07T10:46:33.460Z,4.70
2019-02-07T10:48:10.231Z,5.58
2019-02-07T10:49:32.055Z,4.33
2019-02-07T10:50:51.666Z,4.53
2019-02-07T10:52:15.689Z,4.15
2019-02-07T10:53:30.679Z,4.35
2019-02-07T10:54:52.163Z,5.37
2019-02-07T10:56:28.587Z,4.62
2019-02-07T10:57:58.935Z,6.00
2019-02-07T10:59:28.563Z,3.27
2019-02-07T11:00:58.524Z,4.10
2019-02-07T11:02:41.576Z,5.87
2019-02-07T11:04:06.027Z,4.20
2019-02-07T11:05:44.052Z,4.10
2019-02-07T11:06:56.645Z,4.12
2019-02-07T11:08:23.794Z,5.15
2019-02-07T11:09:50.417Z,4.72
2019-02-07T11:11:18.171Z,4.00
2019-02-07T11:12:46.869Z,4.65
2019-02-07T11:14:05.130Z,5.40
2019-02-07T11:15:43.207Z,4.42
2019-02-07T11:17:10.502Z,4.37
2019-02-07T11:18:28.879Z,4.30
2019-02-07T11:19:57.370Z,3.80
2019-02-07T11:21:16.097Z,5.70
2019-02-07T11:22:55.551Z,4.65
2019-02-07T11:24:31.442Z,5.45
2019-02-07T11:25:54.205Z,4.53
2019-02-07T11:27:36.402Z,4.80
2019-02-07T11:29:00.136Z,4.25
2019-02-07T11:30:17.895Z,5.50
2019-02-07T11:31:51.076Z,4.40
2019-02-07T11:33:17.925Z,4.17
2019-02-07T11:34:46.990Z,4.10
2019-02-07T11:36:09.813Z,4.05
2019-02-07T11:37:40.136Z,3.95
2019-02-07T11:39:03.077Z,3.90
2019-02-07T11:40:45.450Z,5.05
2019-02-07T11:42:03.714Z,4.22
2019-02-07T11:43:26.146Z,3.33
2019-02-07T11:44:56.657Z,3.70
2019-02-07T11:46:37.467Z,3.45
2019-02-07T11:47:59.357Z,4.60
2019-02-07T11:49:38.689Z,4.22
2019-02-07T11:50:55.036Z,5.67
2019-02-07T11:52:18.865Z,4.17
2019-02-07T11:53:43.392Z,4.75
2019-02-07T11:55:06.397Z,3.33
2019-02-07T11:56:30.887Z,3.50
2019-02-07T11:58:10.337Z,4.72
2019-02-07T11:59:46.788Z,3.80
2019-02-07T12:01:19.679Z,4.90
2019-02-07T12:02:42.388Z,3.90
2019-02-07T12:04:00.255Z,4.22
2019-02-07T12:05:17.298Z,4.50
2019-02-07T12:06:40.622Z,4.20
2019-02-07T12:08:03.747Z,5.70
2019-02-07T12:09:29.242Z,4.33
2019-02-07T12:10:54.810Z,3.80
2019-02-07T12:12:22.808Z,4.75
2019-02-07T12:13:46.999Z,4.45
2019-02-07T12:15:09.396Z,3.45
2019-02-07T12:16:34.222Z,3.90
2019-02-07T12:17:48.474Z,3.60
2019-02-07T12:19:03.038Z,4.60
2019-02-07T12:20:21.192Z,5.42
2019-02-07T12:21:48.647Z,3.98
2019-02-07T12:23:24.842Z,3.35
2019-02-07T12:24:48.585Z,2.35
2019-02-07T12:26:14.698Z,3.92
2019-02-07T12:27:51.266Z,3.70
2019-02-07T12:29:33.507Z,3.37
2019-02-07T12:30:56.754Z,3.15
2019-02-07T12:32:19.603Z,3.60
2019-02-07T12:33:35.009Z,3.67
2019-02-07T12:34:52.137Z,3.52
2019-02-07T12:36:05.961Z,3.58
2019-02-07T12:37:48.232Z,3.00
2019-02-07T12:39:01.839Z,4.15
2019-02-07T12:40:17.492Z,3.27
2019-02-07T12:41:37.776Z,3.35
2019-02-07T12:43:00.346Z,3.58
2019-02-07T12:44:27.365Z,3.10
2019-02-07T12:45:49.329Z,3.05
2019-02-07T12:47:27.430Z,3.75
2019-02-07T12:48:54.094Z,4.40
2019-02-07T12:50:30.643Z,3.15
2019-02-07T12:52:00.404Z,4.12
2019-02-07T12:53:30.522Z,3.35
2019-02-07T12:54:56.230Z,3.60
2019-02-07T12:56:17.696Z,4.53
2019-02-07T12:57:41.018Z,3.70
2019-02-07T12:58:57.628Z,2.65
2019-02-07T13:00:37.245Z,2.77
2019-02-07T13:01:59.166Z,3.00
2019-02-07T13:03:22.385Z,2.80
2019-02-07T13:04:41.325Z,2.77
2019-02-07T13:06:21.183Z,3.12
2019-02-07T13:07:46.630Z,2.33
2019-02-07T13:09:03.035Z,3.15
2019-02-07T13:10:28.791Z,2.75
2019-02-07T13:12:09.275Z,3.02
2019-02-07T13:13:23.344Z,3.62
2019-02-07T13:14:34.217Z,2.72
2019-02-07T13:15:58.808Z,2.95
2019-02-07T13:17:38.420Z,2.77
2019-02-07T13:19:21.629Z,4.25
2019-02-07T13:20:49.009Z,3.75
2019-02-07T13:22:20.359Z,4.33
2019-02-07T13:23:42.887Z,3.25
2019-02-07T13:25:05.946Z,3.35
2019-02-07T13:26:24.657Z,2.35
2019-02-07T13:27:43.807Z,3.08
2019-02-07T13:29:10.957Z,3.80
2019-02-07T13:30:42.649Z,3.55
2019-02-07T13:31:55.661Z,3.40
2019-02-07T13:33:34.854Z,3.05
2019-02-07T13:34:58.061Z,3.30
2019-02-07T13:36:20.957Z,3.45
2019-02-07T13:37:34.794Z,2.40
2019-02-07T13:39:04.868Z,2.90
2019-02-07T13:40:22.175Z,2.90
2019-02-07T13:41:49.872Z,2.98
2019-02-07T13:43:12.904Z,3.47
2019-02-07T13:44:45.933Z,2.52
2019-02-07T13:46:00.492Z,2.58
2019-02-07T13:47:34.268Z,3.00
2019-02-07T13:48:58.416Z,2.55
2019-02-07T13:50:21.666Z,3.12
2019-02-07T13:51:44.414Z,2.72
2019-02-07T13:53:01.466Z,3.40
2019-02-07T13:54:32.242Z,3.75
2019-02-07T13:56:05.440Z,3.90
2019-02-07T13:57:41.824Z,2.90
2019-02-07T13:59:05.035Z,4.33
2019-02-07T14:00:39.454Z,2.83
2019-02-07T14:01:54.961Z,2.45
2019-02-07T14:03:28.365Z,3.20
2019-02-07T14:04:51.003Z,2.75
2019-02-07T14:06:24.076Z,2.37
2019-02-07T14:07:50.316Z,3.70
2019-02-07T14:09:14.449Z,4.97
2019-02-07T14:10:56.464Z,3.10
2019-02-07T14:12:19.661Z,2.85
2019-02-07T14:13:42.376Z,3.35
2019-02-07T14:15:13.367Z,3.08
2019-02-07T14:16:40.695Z,3.75
2019-02-07T14:18:03.861Z,2.75
2019-02-07T14:19:28.043Z,2.92
2019-02-07T14:20:46.104Z,3.45
2019-02-07T14:22:16.488Z,4.00
2019-02-07T14:23:42.825Z,2.83
2019-02-07T14:25:09.965Z,2.27
2019-02-07T14:26:34.081Z,3.35
2019-02-07T14:27:57.121Z,3.80
2019-02-07T14:29:30.182Z,2.75
2019-02-07T14:30:49.428Z,2.50
2019-02-07T14:32:12.585Z,2.40
2019-02-07T14:33:31.003Z,2.92
2019-02-07T14:34:46.691Z,2.85
2019-02-07T14:36:09.380Z,2.40
2019-02-07T14:37:26.434Z,3.20
2019-02-07T14:38:49.126Z,4.35
2019-02-07T14:40:12.044Z,3.00
2019-02-07T14:41:38.167Z,2.50
2019-02-07T14:43:01.486Z,3.15
2019-02-07T14:44:24.775Z,3.15
2019-02-07T14:45:38.930Z,2.95
2019-02-07T14:46:49.153Z,2.95
2019-02-07T14:47:54.174Z,2.58
2019-02-07T14:48:59.686Z,2.55
2019-02-07T14:50:14.534Z,2.47
2019-02-07T14:51:12.199Z,3.05
2019-02-07T14:52:17.353Z,2.72
2019-02-07T14:53:22.769Z,2.42
2019-02-07T14:54:28.117Z,2.35
2019-02-07T14:55:33.131Z,2.75
2019-02-07T14:56:38.596Z,2.98
2019-02-07T14:57:43.709Z,3.55
2019-02-07T14:58:49.083Z,3.40
2019-02-07T14:59:54.206Z,2.35
2019-02-07T15:00:59.379Z,2.35
2019-02-07T15:02:04.770Z,3.10
2019-02-07T15:03:10.449Z,2.40
2019-02-07T15:04:15.514Z,2.87
2019-02-07T15:05:21.223Z,2.45
2019-02-07T15:06:26.609Z,2.83
2019-02-07T15:07:34.135Z,2.83
2019-02-07T15:08:39.231Z,3.15
2019-02-07T15:09:44.192Z,3.08
2019-02-07T15:10:49.219Z,2.65
2019-02-07T15:11:54.371Z,4.17
2019-02-07T15:13:01.283Z,2.50
2019-02-07T15:14:07.033Z,3.50
2019-02-07T15:15:13.743Z,2.25
2019-02-07T15:16:18.785Z,2.90
2019-02-07T15:17:25.220Z,2.90
2019-02-07T15:18:30.672Z,3.08
2019-02-07T15:19:36.059Z,3.50
2019-02-07T15:20:41.166Z,3.45
2019-02-07T15:21:46.379Z,4.35
2019-02-07T15:22:51.584Z,2.67
2019-02-07T15:23:56.958Z,2.83
2019-02-07T15:25:02.467Z,2.55
2019-02-07T15:26:08.406Z,2.72
2019-02-07T15:27:13.367Z,3.05
2019-02-07T15:28:18.469Z,2.50
2019-02-07T15:29:23.519Z,2.50
2019-02-07T15:30:28.645Z,3.27
2019-02-07T15:31:33.692Z,3.80
2019-02-07T15:32:38.851Z,2.87
2019-02-07T15:33:44.341Z,2.50
2019-02-07T15:34:53.921Z,3.20
2019-02-07T15:35:59.151Z,2.70
2019-02-07T15:37:04.135Z,3.00
2019-02-07T15:38:09.150Z,2.60
2019-02-07T15:39:16.303Z,2.80
2019-02-07T15:40:25.457Z,2.75
2019-02-07T15:41:29.732Z,3.02
2019-02-07T15:42:34.764Z,2.30
2019-02-07T15:43:39.708Z,2.75
2019-02-07T15:44:44.830Z,2.77
2019-02-07T15:45:49.924Z,3.00
2019-02-07T15:46:55.441Z,3.15
2019-02-07T15:48:00.898Z,2.50
2019-02-07T15:49:06.154Z,3.30
2019-02-07T15:50:17.038Z,2.77
2019-02-07T15:51:22.493Z,2.70
2019-02-07T15:52:27.477Z,2.62
2019-02-07T15:53:32.568Z,2.15
2019-02-07T15:54:38.383Z,2.60
2019-02-07T15:55:43.666Z,2.12
2019-02-07T15:56:48.761Z,2.35
2019-02-07T15:57:54.107Z,2.60
2019-02-07T15:59:09.122Z,2.27
2019-02-07T16:00:36.834Z,2.65
2019-02-07T16:02:04.640Z,3.20
2019-02-07T16:03:28.750Z,2.92
2019-02-07T16:04:36.965Z,2.83
2019-02-07T16:05:42.066Z,2.58
2019-02-07T16:06:47.193Z,2.70
2019-02-07T16:07:52.641Z,2.67
2019-02-07T16:08:57.669Z,2.80
2019-02-07T16:10:02.814Z,2.58
2019-02-07T16:11:07.984Z,2.83
2019-02-07T16:12:13.454Z,2.37
2019-02-07T16:13:19.113Z,3.15
2019-02-07T16:14:24.340Z,2.70
2019-02-07T16:15:30.159Z,2.72
2019-02-07T16:16:35.368Z,2.90
2019-02-07T16:17:40.780Z,2.92
2019-02-07T16:18:45.945Z,2.37
2019-02-07T16:19:51.989Z,2.70
2019-02-07T16:20:57.262Z,2.50
2019-02-07T16:22:02.216Z,2.58
2019-02-07T16:23:07.645Z,3.30
2019-02-07T16:24:12.861Z,2.80
2019-02-07T16:25:18.411Z,2.10
2019-02-07T16:26:23.763Z,2.60
2019-02-07T16:27:28.773Z,3.00
2019-02-07T16:28:33.842Z,3.20
2019-02-07T16:29:38.851Z,2.62
2019-02-07T16:30:44.019Z,3.25
2019-02-07T16:31:49.224Z,2.22
2019-02-07T16:32:54.378Z,2.85
2019-02-07T16:33:59.868Z,3.10
2019-02-07T16:35:06.964Z,2.33
2019-02-07T16:36:12.143Z,2.62
2019-02-07T16:37:17.470Z,2.27
2019-02-07T16:38:22.526Z,2.30
2019-02-07T16:39:28.030Z,3.27
2019-02-07T16:40:33.536Z,2.95
2019-02-07T16:41:38.972Z,3.65
2019-02-07T16:42:44.672Z,3.00
2019-02-07T16:43:49.876Z,3.30
2019-02-07T16:44:55.033Z,3.20
2019-02-07T16:46:00.305Z,2.45
2019-02-07T16:47:05.760Z,2.70
2019-02-07T16:48:10.868Z,2.60
2019-02-07T16:49:15.917Z,2.35
2019-02-07T16:50:21.414Z,3.02
2019-02-07T16:51:26.468Z,2.10
2019-02-07T16:52:31.947Z,2.40
2019-02-07T16:53:37.175Z,2.40
2019-02-07T16:54:42.649Z,2.90
2019-02-07T16:55:47.977Z,2.15
2019-02-07T16:56:53.359Z,2.52
2019-02-07T16:57:58.464Z,3.02
2019-02-07T16:59:03.565Z,2.60
2019-02-07T17:00:18.562Z,2.37
2019-02-07T17:01:23.737Z,2.60
2019-02-07T17:02:28.886Z,3.00
2019-02-07T17:03:33.925Z,3.27
2019-02-07T17:04:39.279Z,2.08
2019-02-07T17:05:44.519Z,2.92
2019-02-07T17:06:49.698Z,2.42
2019-02-07T17:07:55.237Z,2.22
2019-02-07T17:09:00.349Z,2.77
2019-02-07T17:10:08.546Z,5.17
2019-02-07T17:11:13.587Z,2.25
2019-02-07T17:12:18.562Z,2.60
2019-02-07T17:13:23.762Z,3.10
2019-02-07T17:14:28.916Z,3.55
2019-02-07T17:15:34.106Z,2.30
2019-02-07T17:16:39.206Z,2.25
2019-02-07T17:17:44.334Z,2.35
2019-02-07T17:18:50.287Z,2.77
2019-02-07T17:19:55.548Z,2.67
2019-02-07T17:21:11.236Z,2.60
2019-02-07T17:22:08.488Z,2.27
2019-02-07T17:23:13.863Z,3.30